< < Back
Terminal Aerodrome Forecast


Current Version              Previous Versions:   1  2  3  4  5  6  7  8  9  

Terminal Aerodrome Forecast

977
FTUS42 KJAX 271721
TAFSSI
TAF
KSSI 271721Z 2718/2818 13010KT P6SM VCTS SCT050CB BKN250
     FM280400 14004KT P6SM FEW040 BKN200
     FM281400 08009KT P6SM SCT030=

Latest METAR

302
SAUS70 KWBC 280200 RRB
MTRSSI
METAR KSSI 280153Z AUTO 07004KT 10SM CLR 28/23 A2998 RMK AO2 LTG DSNT E
SLP152 T02780233


USA.gov is the U.S. government's official web portal to all federal, state and local government web resources and services.